createdAt,value
2019-04-06T00:01:32.273Z,82.00
2019-04-06T00:04:02.605Z,68.40
2019-04-06T00:06:32.691Z,65.87
2019-04-06T00:09:03.898Z,75.37
2019-04-06T00:11:33.854Z,91.07
2019-04-06T00:14:04.187Z,101.23
2019-04-06T00:16:35.101Z,102.23
2019-04-06T00:19:05.133Z,98.43
2019-04-06T00:21:35.147Z,75.60
2019-04-06T00:24:05.547Z,77.30
2019-04-06T00:26:35.947Z,92.83
2019-04-06T00:29:06.047Z,99.67
2019-04-06T00:32:01.177Z,86.83
2019-04-06T00:34:31.534Z,82.93
2019-04-06T00:37:01.558Z,89.40
2019-04-06T00:39:31.811Z,96.73
2019-04-06T00:42:01.863Z,92.67
2019-04-06T00:44:31.796Z,68.20
2019-04-06T00:47:01.816Z,91.67
2019-04-06T00:49:31.828Z,71.63
2019-04-06T00:52:01.727Z,70.43
2019-04-06T00:54:31.792Z,67.93
2019-04-06T00:57:02.170Z,63.20
2019-04-06T00:59:32.206Z,77.03
2019-04-06T01:02:02.133Z,81.20
2019-04-06T01:04:32.321Z,74.00
2019-04-06T01:07:02.533Z,68.03
2019-04-06T01:09:32.949Z,66.67
2019-04-06T01:12:02.946Z,85.03
2019-04-06T01:14:33.158Z,61.30
2019-04-06T01:17:04.110Z,57.63
2019-04-06T01:19:34.096Z,65.03
2019-04-06T01:22:04.071Z,70.63
2019-04-06T01:24:34.077Z,60.33
2019-04-06T01:27:04.205Z,76.67
2019-04-06T01:29:34.195Z,75.53
2019-04-06T01:32:04.269Z,82.20
2019-04-06T01:34:34.453Z,97.03
2019-04-06T01:37:04.777Z,76.33
2019-04-06T01:39:34.695Z,64.93
2019-04-06T01:42:04.642Z,64.77
2019-04-06T01:44:34.533Z,59.77
2019-04-06T01:47:04.496Z,59.50
2019-04-06T01:49:34.400Z,63.73
2019-04-06T01:52:04.317Z,63.03
2019-04-06T01:54:34.433Z,65.37
2019-04-06T01:57:04.424Z,61.63
2019-04-06T01:59:34.428Z,58.60
2019-04-06T02:02:12.396Z,57.03
2019-04-06T02:04:42.491Z,60.60
2019-04-06T02:07:12.628Z,60.50
2019-04-06T02:09:42.779Z,60.10
2019-04-06T02:12:13.024Z,61.63
2019-04-06T02:14:42.934Z,67.27
2019-04-06T02:17:12.832Z,56.87
2019-04-06T02:19:42.929Z,59.03
2019-04-06T02:22:13.144Z,59.67
2019-04-06T02:24:43.247Z,54.37
2019-04-06T02:27:13.161Z,46.77
2019-04-06T02:29:43.594Z,42.40
2019-04-06T02:32:26.500Z,36.20
2019-04-06T02:35:05.332Z,39.53
2019-04-06T02:37:56.267Z,38.10
2019-04-06T02:40:46.056Z,29.53
2019-04-06T02:43:19.535Z,30.93
2019-04-06T02:45:49.517Z,24.67
2019-04-06T02:48:19.478Z,28.23
2019-04-06T02:50:49.633Z,29.70
2019-04-06T02:53:19.513Z,24.60
2019-04-06T02:55:49.596Z,23.83
2019-04-06T02:58:22.825Z,26.63
2019-04-06T03:00:51.720Z,23.77
2019-04-06T03:03:23.423Z,26.27
2019-04-06T03:05:53.753Z,25.87
2019-04-06T03:08:23.710Z,25.73
2019-04-06T03:10:53.815Z,24.73
2019-04-06T03:13:24.103Z,26.83
2019-04-06T03:15:54.543Z,26.00
2019-04-06T03:18:25.153Z,23.03
2019-04-06T03:20:55.192Z,23.77
2019-04-06T03:23:25.794Z,25.23
2019-04-06T03:25:56.144Z,24.47
2019-04-06T03:28:26.229Z,25.47
2019-04-06T03:30:56.182Z,28.73
2019-04-06T03:33:26.176Z,28.73
2019-04-06T03:35:56.074Z,26.93
2019-04-06T03:38:26.025Z,26.03
2019-04-06T03:40:55.945Z,26.97
2019-04-06T03:43:25.874Z,28.17
2019-04-06T03:45:55.868Z,25.33
2019-04-06T03:48:25.843Z,23.93
2019-04-06T03:50:55.747Z,28.33
2019-04-06T03:53:25.725Z,28.43
2019-04-06T03:55:55.849Z,26.30
2019-04-06T03:58:26.077Z,25.00
2019-04-06T04:00:56.053Z,25.23
2019-04-06T04:03:25.964Z,25.10
2019-04-06T04:05:56.173Z,25.20
2019-04-06T04:08:26.115Z,26.23
2019-04-06T04:10:56.695Z,26.53
2019-04-06T04:13:26.640Z,23.90
2019-04-06T04:15:57.653Z,26.47
2019-04-06T04:18:28.136Z,27.70
2019-04-06T04:20:58.036Z,23.93
2019-04-06T04:23:27.965Z,27.57
2019-04-06T04:25:57.871Z,28.00
2019-04-06T04:28:27.785Z,27.37
2019-04-06T04:30:57.708Z,28.37
2019-04-06T04:33:27.619Z,27.63
2019-04-06T04:35:57.535Z,24.87
2019-04-06T04:38:27.416Z,27.80
2019-04-06T04:40:57.711Z,25.77
2019-04-06T04:43:27.673Z,24.90
2019-04-06T04:45:57.636Z,25.63
2019-04-06T04:48:27.846Z,26.53
2019-04-06T04:50:57.773Z,27.03
2019-04-06T04:53:27.685Z,25.33
2019-04-06T04:55:57.835Z,31.30
2019-04-06T04:58:28.119Z,29.47
2019-04-06T05:00:58.048Z,26.63
2019-04-06T05:03:27.967Z,26.50
2019-04-06T05:05:58.140Z,26.77
2019-04-06T05:08:28.415Z,29.43
2019-04-06T05:10:58.441Z,24.23
2019-04-06T05:13:28.375Z,30.17
2019-04-06T05:16:23.598Z,28.37
2019-04-06T05:18:53.518Z,30.67
2019-04-06T05:21:23.723Z,24.63
2019-04-06T05:23:53.974Z,28.03
2019-04-06T05:26:24.446Z,30.63
2019-04-06T05:28:54.688Z,26.63
2019-04-06T05:31:24.812Z,27.47
2019-04-06T05:33:55.021Z,25.17
2019-04-06T05:36:24.998Z,28.87
2019-04-06T05:38:55.100Z,27.40
2019-04-06T05:41:25.041Z,29.30
2019-04-06T05:43:54.937Z,26.50
2019-04-06T05:46:25.511Z,27.73
2019-04-06T05:48:55.676Z,27.73
2019-04-06T05:51:25.665Z,27.97
2019-04-06T05:53:55.557Z,25.57
2019-04-06T05:56:25.698Z,29.80
2019-04-06T05:58:55.617Z,27.50
2019-04-06T06:01:25.633Z,27.97
2019-04-06T06:03:55.730Z,28.10
2019-04-06T06:06:25.694Z,32.17
2019-04-06T06:08:56.297Z,26.13
2019-04-06T06:11:26.287Z,30.77
2019-04-06T06:13:56.265Z,29.53
2019-04-06T06:16:26.343Z,31.87
2019-04-06T06:18:56.400Z,29.40
2019-04-06T06:21:26.501Z,29.53
2019-04-06T06:23:56.810Z,28.30
2019-04-06T06:26:26.837Z,30.73
2019-04-06T06:28:56.771Z,32.03
2019-04-06T06:31:26.690Z,32.00
2019-04-06T06:33:56.605Z,32.37
2019-04-06T06:36:26.581Z,35.77
2019-04-06T06:38:56.536Z,29.47
2019-04-06T06:41:26.833Z,31.20
2019-04-06T06:43:57.049Z,34.07
2019-04-06T06:46:26.966Z,28.13
2019-04-06T06:48:57.173Z,29.83
2019-04-06T06:51:27.395Z,35.47
2019-04-06T06:53:57.278Z,31.90
2019-04-06T06:56:27.596Z,31.07
2019-04-06T06:58:57.916Z,32.80
2019-04-06T07:01:28.077Z,32.20
2019-04-06T07:03:57.967Z,35.33
2019-04-06T07:06:27.988Z,34.33
2019-04-06T07:08:57.945Z,30.17
2019-04-06T07:11:28.336Z,37.80
2019-04-06T07:13:58.528Z,31.60
2019-04-06T07:16:28.464Z,36.80
2019-04-06T07:18:58.443Z,49.40
2019-04-06T07:21:28.355Z,59.93
2019-04-06T07:23:58.328Z,36.20
2019-04-06T07:26:28.695Z,29.83
2019-04-06T07:28:58.630Z,30.57
2019-04-06T07:31:28.637Z,29.90
2019-04-06T07:33:58.940Z,30.87
2019-04-06T07:36:28.848Z,31.57
2019-04-06T07:38:58.822Z,30.37
2019-04-06T07:41:28.743Z,38.00
2019-04-06T07:43:58.666Z,33.17
2019-04-06T07:46:29.087Z,30.93
2019-04-06T07:49:07.942Z,32.07
2019-04-06T07:51:31.223Z,34.53
2019-04-06T07:54:01.467Z,32.20
2019-04-06T07:56:31.458Z,32.83
2019-04-06T07:59:01.496Z,31.73
2019-04-06T08:01:31.565Z,33.70
2019-04-06T08:04:01.640Z,32.17
2019-04-06T08:06:31.827Z,30.80
2019-04-06T08:09:01.843Z,32.40
2019-04-06T08:11:32.151Z,33.53
2019-04-06T08:14:02.197Z,30.77
2019-04-06T08:16:32.166Z,33.77
2019-04-06T08:19:02.460Z,34.30
2019-04-06T08:21:33.218Z,36.63
2019-04-06T08:24:03.667Z,35.20
2019-04-06T08:26:33.859Z,33.57
2019-04-06T08:29:04.067Z,33.77
2019-04-06T08:31:34.049Z,34.73
2019-04-06T08:34:04.108Z,34.73
2019-04-06T08:36:34.012Z,33.03
2019-04-06T08:39:06.017Z,33.80
2019-04-06T08:41:36.059Z,36.00
2019-04-06T08:44:06.424Z,37.33
2019-04-06T08:46:36.438Z,32.40
2019-04-06T08:49:06.887Z,32.73
2019-04-06T08:51:36.789Z,32.73
2019-04-06T08:54:07.190Z,31.13
2019-04-06T08:56:37.700Z,33.20
2019-04-06T08:59:12.018Z,35.53
2019-04-06T09:01:39.763Z,35.17
2019-04-06T09:04:09.783Z,32.20
2019-04-06T09:06:39.812Z,34.33
2019-04-06T09:09:09.949Z,39.77
2019-04-06T09:11:40.234Z,30.23
2019-04-06T09:14:10.242Z,33.77
2019-04-06T09:16:40.594Z,30.83
2019-04-06T09:19:10.469Z,29.07
2019-04-06T09:21:41.148Z,31.97
2019-04-06T09:24:11.224Z,35.13
2019-04-06T09:26:41.181Z,30.90
2019-04-06T09:29:21.886Z,31.50
2019-04-06T09:31:43.040Z,29.27
2019-04-06T09:34:12.963Z,32.03
2019-04-06T09:36:42.960Z,29.77
2019-04-06T09:39:12.887Z,34.50
2019-04-06T09:41:42.829Z,27.97
2019-04-06T09:44:21.024Z,29.03
2019-04-06T09:47:03.022Z,29.10
2019-04-06T09:49:54.722Z,27.30
2019-04-06T09:52:34.101Z,27.40
2019-04-06T09:55:22.107Z,26.67
2019-04-06T09:58:14.476Z,30.43
2019-04-06T10:00:55.245Z,26.77
2019-04-06T10:03:38.357Z,25.77
2019-04-06T10:06:27.959Z,26.07
2019-04-06T10:09:33.364Z,26.37
2019-04-06T10:12:18.887Z,29.73
2019-04-06T10:15:04.563Z,24.37
2019-04-06T10:17:43.165Z,28.07
2019-04-06T10:20:26.097Z,26.63
2019-04-06T10:23:14.072Z,24.53
2019-04-06T10:25:59.840Z,23.60
2019-04-06T10:28:44.273Z,27.67
2019-04-06T10:31:37.062Z,26.37
2019-04-06T10:34:25.078Z,23.43
2019-04-06T10:37:13.578Z,23.90
2019-04-06T10:40:05.665Z,29.33
2019-04-06T10:42:53.512Z,21.83
2019-04-06T10:45:33.938Z,24.60
2019-04-06T10:48:13.624Z,28.87
2019-04-06T10:51:01.242Z,32.73
2019-04-06T10:53:40.041Z,21.63
2019-04-06T10:56:32.155Z,25.10
2019-04-06T10:59:29.120Z,21.27
2019-04-06T11:02:24.452Z,23.27
2019-04-06T11:05:16.159Z,20.50
2019-04-06T11:08:08.460Z,23.23
2019-04-06T11:10:53.859Z,21.87
2019-04-06T11:13:35.891Z,22.03
2019-04-06T11:16:25.670Z,26.00
2019-04-06T11:19:12.244Z,25.63
2019-04-06T11:21:50.235Z,24.73
2019-04-06T11:24:39.152Z,24.43
2019-04-06T11:27:27.773Z,22.77
2019-04-06T11:30:13.249Z,21.00
2019-04-06T11:32:56.504Z,22.60
2019-04-06T11:35:44.541Z,24.40
2019-04-06T11:38:42.522Z,26.73
2019-04-06T11:41:21.386Z,23.57
2019-04-06T11:43:59.375Z,26.33
2019-04-06T11:46:40.419Z,28.10
2019-04-06T11:49:35.234Z,23.30
2019-04-06T11:52:17.342Z,22.73
2019-04-06T11:55:05.609Z,24.23
2019-04-06T11:57:54.480Z,21.87
2019-04-06T12:00:31.733Z,23.67
2019-04-06T12:03:22.430Z,22.00
2019-04-06T12:06:20.654Z,26.70
2019-04-06T12:08:59.743Z,22.40
2019-04-06T12:11:52.002Z,23.20
2019-04-06T12:14:27.333Z,24.43
2019-04-06T12:17:11.630Z,25.87
2019-04-06T12:20:08.010Z,24.37
2019-04-06T12:22:53.672Z,22.93
2019-04-06T12:25:51.581Z,21.73
2019-04-06T12:28:28.961Z,23.23
2019-04-06T12:31:18.070Z,24.30
2019-04-06T12:34:00.600Z,21.90
2019-04-06T12:36:36.910Z,21.57
2019-04-06T12:39:17.982Z,23.23
2019-04-06T12:42:10.483Z,21.80
2019-04-06T12:45:04.095Z,28.37
2019-04-06T12:47:42.424Z,20.67
2019-04-06T12:50:23.036Z,22.60
2019-04-06T12:53:11.003Z,24.40
2019-04-06T12:56:06.008Z,24.73
2019-04-06T12:58:51.709Z,23.60
2019-04-06T13:01:41.474Z,21.77
2019-04-06T13:04:25.477Z,22.60
2019-04-06T13:07:14.013Z,22.30
2019-04-06T13:10:06.070Z,22.83
2019-04-06T13:12:48.377Z,20.73
2019-04-06T13:15:34.218Z,21.57
2019-04-06T13:18:32.463Z,18.97
2019-04-06T13:21:27.580Z,21.40
2019-04-06T13:24:08.539Z,20.77
2019-04-06T13:26:56.312Z,20.67
2019-04-06T13:29:39.976Z,21.63
2019-04-06T13:32:21.389Z,17.87
2019-04-06T13:35:14.905Z,17.17
2019-04-06T13:37:56.268Z,17.77
2019-04-06T13:40:50.292Z,17.67
2019-04-06T13:43:44.987Z,16.33
2019-04-06T13:46:24.220Z,17.60
2019-04-06T13:49:06.132Z,20.33
2019-04-06T13:51:44.395Z,17.70
2019-04-06T13:54:33.791Z,19.23
2019-04-06T13:57:10.596Z,14.30
2019-04-06T13:59:59.199Z,17.63
2019-04-06T14:02:44.034Z,16.10
2019-04-06T14:05:22.059Z,12.53
2019-04-06T14:08:03.347Z,19.03
2019-04-06T14:10:42.690Z,13.03
2019-04-06T14:13:37.086Z,13.30
2019-04-06T14:16:24.706Z,17.20
2019-04-06T14:19:17.696Z,14.67
2019-04-06T14:22:12.561Z,12.77
2019-04-06T14:25:07.400Z,17.27
2019-04-06T14:28:14.406Z,12.30
2019-04-06T14:31:27.922Z,13.77
2019-04-06T14:34:11.906Z,17.87
2019-04-06T14:36:50.634Z,17.90
2019-04-06T14:39:39.756Z,15.70
2019-04-06T14:42:30.731Z,14.80
2019-04-06T14:45:18.298Z,14.10
2019-04-06T14:48:04.748Z,16.70
2019-04-06T14:50:41.836Z,15.90
2019-04-06T14:53:33.615Z,14.70
2019-04-06T14:56:12.229Z,14.80
2019-04-06T14:59:07.965Z,16.40
2019-04-06T15:02:00.150Z,15.57
2019-04-06T15:04:54.338Z,19.90
2019-04-06T15:07:30.674Z,16.23
2019-04-06T15:10:10.836Z,15.10
2019-04-06T15:12:50.113Z,15.63
2019-04-06T15:15:37.641Z,17.73
2019-04-06T15:18:32.736Z,15.23
2019-04-06T15:21:34.502Z,15.00
2019-04-06T15:24:19.993Z,12.93
2019-04-06T15:27:11.398Z,16.07
2019-04-06T15:29:50.311Z,16.70
2019-04-06T15:32:28.961Z,11.50
2019-04-06T15:35:07.377Z,13.33
2019-04-06T15:37:44.790Z,14.33
2019-04-06T15:40:25.321Z,14.17
2019-04-06T15:43:05.261Z,13.87
2019-04-06T15:45:54.281Z,15.57
2019-04-06T15:49:01.338Z,17.03
2019-04-06T15:51:46.385Z,15.93
2019-04-06T15:54:33.077Z,16.77
2019-04-06T15:57:27.782Z,18.30
2019-04-06T16:00:03.375Z,23.57
2019-04-06T16:03:00.989Z,17.20
2019-04-06T16:06:09.441Z,17.40
2019-04-06T16:09:07.671Z,14.47
2019-04-06T16:11:52.862Z,19.43
2019-04-06T16:14:33.463Z,16.60
2019-04-06T16:17:15.053Z,19.60
2019-04-06T16:20:04.226Z,18.63
2019-04-06T16:22:53.883Z,19.43
2019-04-06T16:25:30.716Z,20.80
2019-04-06T16:28:25.896Z,18.97
2019-04-06T16:31:16.023Z,19.53
2019-04-06T16:33:59.365Z,24.57
2019-04-06T16:36:42.722Z,17.97
2019-04-06T16:39:30.077Z,21.10
2019-04-06T16:42:29.485Z,21.47
2019-04-06T16:45:07.318Z,18.13
2019-04-06T16:48:03.297Z,17.97
2019-04-06T16:50:38.477Z,22.00
2019-04-06T16:53:36.711Z,18.03
2019-04-06T16:56:20.990Z,18.57
2019-04-06T16:59:03.752Z,20.10
2019-04-06T17:01:38.794Z,19.17
2019-04-06T17:04:42.814Z,19.77
2019-04-06T17:07:25.226Z,19.20
2019-04-06T17:10:29.384Z,17.47
2019-04-06T17:13:09.713Z,20.27
2019-04-06T17:15:54.809Z,18.93
2019-04-06T17:18:43.697Z,17.07
2019-04-06T17:21:25.782Z,18.90
2019-04-06T17:24:14.006Z,19.10
2019-04-06T17:26:59.284Z,17.60
2019-04-06T17:29:49.732Z,19.20
2019-04-06T17:32:38.317Z,18.20
2019-04-06T17:35:32.494Z,17.17
2019-04-06T17:38:10.216Z,21.50
2019-04-06T17:40:54.702Z,17.07
2019-04-06T17:43:43.034Z,15.47
2019-04-06T17:46:37.128Z,17.00
2019-04-06T17:49:28.661Z,23.30
2019-04-06T17:52:17.264Z,17.60
2019-04-06T17:55:14.483Z,17.50
2019-04-06T17:57:57.823Z,17.47
2019-04-06T18:00:35.884Z,16.57
2019-04-06T18:03:28.511Z,19.53
2019-04-06T18:06:28.379Z,18.47
2019-04-06T18:09:16.418Z,16.97
2019-04-06T18:11:57.860Z,20.93
2019-04-06T18:14:28.097Z,16.83
2019-04-06T18:16:58.318Z,16.37
2019-04-06T18:19:28.786Z,15.57
2019-04-06T18:21:59.500Z,16.87
2019-04-06T18:24:29.783Z,16.87
2019-04-06T18:26:59.997Z,17.87
2019-04-06T18:29:30.844Z,16.17
2019-04-06T18:32:09.915Z,15.40
2019-04-06T18:34:42.139Z,16.13
2019-04-06T18:37:45.993Z,18.53
2019-04-06T18:40:23.647Z,16.07
2019-04-06T18:42:54.525Z,18.03
2019-04-06T18:45:34.110Z,17.40
2019-04-06T18:48:04.230Z,16.83
2019-04-06T18:50:38.221Z,18.23
2019-04-06T18:53:06.230Z,15.80
2019-04-06T18:55:36.264Z,17.40
2019-04-06T18:58:11.248Z,18.33
2019-04-06T19:00:38.382Z,18.30
2019-04-06T19:03:14.092Z,16.20
2019-04-06T19:05:43.313Z,17.83
2019-04-06T19:08:13.644Z,17.63
2019-04-06T19:10:51.315Z,15.00
2019-04-06T19:13:21.610Z,17.97
2019-04-06T19:15:51.800Z,16.30
2019-04-06T19:18:33.382Z,16.87
2019-04-06T19:21:24.194Z,18.47
2019-04-06T19:24:13.789Z,15.73
2019-04-06T19:26:45.445Z,18.97
2019-04-06T19:29:15.384Z,15.90
2019-04-06T19:31:46.025Z,16.27
2019-04-06T19:34:15.958Z,16.00
2019-04-06T19:36:46.097Z,18.00
2019-04-06T19:39:16.215Z,18.57
2019-04-06T19:41:46.222Z,17.47
2019-04-06T19:44:16.719Z,14.43
2019-04-06T19:46:47.025Z,16.50
2019-04-06T19:49:17.857Z,18.60
2019-04-06T19:51:48.154Z,16.93
2019-04-06T19:54:18.143Z,17.70
2019-04-06T19:56:48.590Z,18.73
2019-04-06T19:59:18.776Z,17.90
2019-04-06T20:01:49.296Z,16.50
2019-04-06T20:04:19.474Z,15.77
2019-04-06T20:06:50.450Z,15.60
2019-04-06T20:09:20.793Z,16.07
2019-04-06T20:11:51.407Z,16.30
2019-04-06T20:14:21.934Z,19.83
2019-04-06T20:16:51.925Z,17.50
2019-04-06T20:19:22.601Z,17.97
2019-04-06T20:21:53.005Z,20.77
2019-04-06T20:24:23.437Z,17.80
2019-04-06T20:26:53.440Z,16.27
2019-04-06T20:29:23.715Z,16.43
2019-04-06T20:31:54.293Z,15.07
2019-04-06T20:34:24.215Z,17.27
2019-04-06T20:36:54.209Z,16.63
2019-04-06T20:39:24.284Z,21.57
2019-04-06T20:41:54.559Z,18.97
2019-04-06T20:44:24.958Z,16.70
2019-04-06T20:46:55.188Z,20.77
2019-04-06T20:49:25.216Z,16.17
2019-04-06T20:51:55.296Z,16.73
2019-04-06T20:54:25.309Z,17.10
2019-04-06T20:56:57.999Z,18.37
2019-04-06T20:59:27.424Z,20.20
2019-04-06T21:01:57.831Z,23.43
2019-04-06T21:04:29.192Z,19.87
2019-04-06T21:06:59.937Z,17.70
2019-04-06T21:09:35.294Z,18.83
2019-04-06T21:12:05.386Z,16.37
2019-04-06T21:14:36.204Z,19.43
2019-04-06T21:17:06.884Z,16.27
2019-04-06T21:19:42.691Z,21.17
2019-04-06T21:22:12.824Z,17.13
2019-04-06T21:24:44.114Z,22.13
2019-04-06T21:27:14.349Z,19.10
2019-04-06T21:29:44.560Z,17.13
2019-04-06T21:32:15.075Z,18.43
2019-04-06T21:34:45.765Z,17.70
2019-04-06T21:37:16.233Z,19.50
2019-04-06T21:39:46.762Z,15.47
2019-04-06T21:42:17.204Z,17.90
2019-04-06T21:44:48.048Z,19.73
2019-04-06T21:47:18.486Z,19.57
2019-04-06T21:49:49.394Z,18.87
2019-04-06T21:52:19.348Z,17.77
2019-04-06T21:54:49.844Z,20.93
2019-04-06T21:57:20.494Z,20.77
2019-04-06T21:59:50.519Z,19.07
2019-04-06T22:02:28.616Z,18.11
2019-04-06T22:04:59.020Z,19.43
2019-04-06T22:07:29.802Z,18.90
2019-04-06T22:09:59.924Z,18.93
2019-04-06T22:12:30.091Z,19.43
2019-04-06T22:15:00.770Z,24.63
2019-04-06T22:17:33.549Z,20.13
2019-04-06T22:20:03.030Z,21.87
2019-04-06T22:22:35.376Z,18.63
2019-04-06T22:25:06.263Z,18.03
2019-04-06T22:27:37.085Z,23.53
2019-04-06T22:30:09.779Z,21.87
2019-04-06T22:32:40.294Z,21.23
2019-04-06T22:35:10.600Z,19.13
2019-04-06T22:37:41.887Z,23.00
2019-04-06T22:40:14.234Z,21.50
2019-04-06T22:42:45.108Z,22.77
2019-04-06T22:45:17.500Z,23.20
2019-04-06T22:47:47.693Z,20.80
2019-04-06T22:50:18.810Z,23.90
2019-04-06T22:52:48.879Z,21.63
2019-04-06T22:55:20.998Z,26.67
2019-04-06T22:57:51.173Z,16.73
2019-04-06T23:00:32.127Z,21.47
2019-04-06T23:03:13.303Z,19.17
2019-04-06T23:05:47.038Z,25.40
2019-04-06T23:08:16.922Z,18.63
2019-04-06T23:10:47.587Z,20.10
2019-04-06T23:13:17.747Z,22.27
2019-04-06T23:15:47.999Z,18.07
2019-04-06T23:18:18.645Z,23.07
2019-04-06T23:20:48.619Z,18.90
2019-04-06T23:23:18.562Z,18.33
2019-04-06T23:25:48.481Z,18.53
2019-04-06T23:28:18.496Z,20.73
2019-04-06T23:30:48.838Z,19.23
2019-04-06T23:33:18.851Z,21.30
2019-04-06T23:35:49.164Z,19.17
2019-04-06T23:38:19.279Z,21.53
2019-04-06T23:40:49.762Z,19.33
2019-04-06T23:43:19.825Z,22.33
2019-04-06T23:45:50.372Z,18.20
2019-04-06T23:48:20.672Z,20.53
2019-04-06T23:50:51.633Z,26.57
2019-04-06T23:53:21.966Z,20.87
2019-04-06T23:55:51.907Z,18.93
2019-04-06T23:58:21.858Z,20.70
